CheckWX is a tool to help pilots better visualize weather data.  It is not intended as a substitute for an official pre-flight weather briefing.

23:14:41 UTC

DAUK METAR
Touggourt Sidi Madhi Airport
Touggourt, Algeria
Current

15 mins ago

DAUK 242300Z 36008KT 6000 BKN040 SCT100 24/15 Q1009
Observed
May-24 @ 23:00 UTC
Wind
  • 360° at 8 KTS
Visibility
6,003 meters
Flight Rules
MVFR
Cloud Levels
  • Broken at 4,000' AGL
  • Scattered at 10,000' AGL
Temperature
24°C / 75°F
Dewpoint
15°C / 59°F
Humidity
57%
Altimeter
29.79" Hg
Pressure
1008.92 hPa
Previous

1 hour ago

DAUK 242200Z 32015KT 6000 -RA BKN040 SCT100 24/15 Q1011
Observed
May-24 @ 22:00 UTC
Wind
  • 320° at 15 KTS
Visibility
6,003 meters
Flight Rules
MVFR
Conditions
Light Rain
Cloud Levels
  • Broken at 4,000' AGL
  • Scattered at 10,000' AGL
Temperature
24°C / 75°F
Dewpoint
15°C / 59°F
Humidity
57%
Altimeter
29.85" Hg
Pressure
1010.92 hPa
Previous

2 hours ago

DAUK 242100Z 34008KT 8000 SCT040 BKN100 24/16 Q1010
Observed
May-24 @ 21:00 UTC
Wind
  • 340° at 8 KTS
Visibility
7,998 meters
Flight Rules
MVFR
Cloud Levels
  • Scattered at 4,000' AGL
  • Broken at 10,000' AGL
Temperature
24°C / 75°F
Dewpoint
16°C / 61°F
Humidity
61%
Altimeter
29.82" Hg
Pressure
1009.92 hPa